sensor_id;sensor_type;location;lat;lon;timestamp;P1;durP1;ratioP1;P2;durP2;ratioP2
14326;SDS011;7247;53.330;-1.180;2023-05-07T00:01:12;18.00;;;16.10;;
14326;SDS011;7247;53.330;-1.180;2023-05-07T00:03:38;15.80;;;14.20;;
14326;SDS011;7247;53.330;-1.180;2023-05-07T00:06:05;16.17;;;14.47;;
14326;SDS011;7247;53.330;-1.180;2023-05-07T00:08:31;16.43;;;14.77;;
14326;SDS011;7247;53.330;-1.180;2023-05-07T00:10:59;16.17;;;14.53;;
14326;SDS011;7247;53.330;-1.180;2023-05-07T00:13:25;16.20;;;14.50;;
14326;SDS011;7247;53.330;-1.180;2023-05-07T00:15:52;15.87;;;14.00;;
14326;SDS011;7247;53.330;-1.180;2023-05-07T00:18:18;17.50;;;15.23;;
14326;SDS011;7247;53.330;-1.180;2023-05-07T00:20:47;16.87;;;15.07;;
14326;SDS011;7247;53.330;-1.180;2023-05-07T00:23:13;15.77;;;14.03;;
14326;SDS011;7247;53.330;-1.180;2023-05-07T00:25:40;16.77;;;15.03;;
14326;SDS011;7247;53.330;-1.180;2023-05-07T00:28:08;16.03;;;14.20;;
14326;SDS011;7247;53.330;-1.180;2023-05-07T00:30:34;15.30;;;13.70;;
14326;SDS011;7247;53.330;-1.180;2023-05-07T00:33:01;15.70;;;14.10;;
14326;SDS011;7247;53.330;-1.180;2023-05-07T00:35:27;16.10;;;14.40;;
14326;SDS011;7247;53.330;-1.180;2023-05-07T00:37:54;17.10;;;15.30;;
14326;SDS011;7247;53.330;-1.180;2023-05-07T00:40:20;17.50;;;15.70;;
14326;SDS011;7247;53.330;-1.180;2023-05-07T00:42:47;17.67;;;15.63;;
14326;SDS011;7247;53.330;-1.180;2023-05-07T00:45:15;15.87;;;14.27;;
14326;SDS011;7247;53.330;-1.180;2023-05-07T00:47:42;17.73;;;14.77;;
14326;SDS011;7247;53.330;-1.180;2023-05-07T00:50:09;16.87;;;14.93;;
14326;SDS011;7247;53.330;-1.180;2023-05-07T00:52:37;14.80;;;13.30;;
14326;SDS011;7247;53.330;-1.180;2023-05-07T00:55:04;16.23;;;14.60;;
14326;SDS011;7247;53.330;-1.180;2023-05-07T00:57:32;15.87;;;14.17;;
14326;SDS011;7247;53.330;-1.180;2023-05-07T00:59:59;16.17;;;14.47;;
14326;SDS011;7247;53.330;-1.180;2023-05-07T01:02:27;18.33;;;14.43;;
14326;SDS011;7247;53.330;-1.180;2023-05-07T01:04:53;15.27;;;13.57;;
14326;SDS011;7247;53.330;-1.180;2023-05-07T01:07:21;17.17;;;14.13;;
14326;SDS011;7247;53.330;-1.180;2023-05-07T01:09:47;17.90;;;15.30;;
14326;SDS011;7247;53.330;-1.180;2023-05-07T01:12:14;16.67;;;14.87;;
14326;SDS011;7247;53.330;-1.180;2023-05-07T01:14:41;19.07;;;15.53;;
14326;SDS011;7247;53.330;-1.180;2023-05-07T01:17:07;18.73;;;14.43;;
14326;SDS011;7247;53.330;-1.180;2023-05-07T01:19:35;16.13;;;14.30;;
14326;SDS011;7247;53.330;-1.180;2023-05-07T01:22:03;14.47;;;12.63;;
14326;SDS011;7247;53.330;-1.180;2023-05-07T01:24:32;15.67;;;13.97;;
14326;SDS011;7247;53.330;-1.180;2023-05-07T01:26:59;16.20;;;14.23;;
14326;SDS011;7247;53.330;-1.180;2023-05-07T01:29:26;17.17;;;14.00;;
14326;SDS011;7247;53.330;-1.180;2023-05-07T01:31:53;14.30;;;12.77;;
14326;SDS011;7247;53.330;-1.180;2023-05-07T01:34:19;16.93;;;14.80;;
14326;SDS011;7247;53.330;-1.180;2023-05-07T01:36:47;18.10;;;14.10;;
14326;SDS011;7247;53.330;-1.180;2023-05-07T01:39:14;15.43;;;13.73;;
14326;SDS011;7247;53.330;-1.180;2023-05-07T01:41:42;14.73;;;13.23;;
14326;SDS011;7247;53.330;-1.180;2023-05-07T01:44:09;14.90;;;13.13;;
14326;SDS011;7247;53.330;-1.180;2023-05-07T01:46:36;14.77;;;13.20;;
14326;SDS011;7247;53.330;-1.180;2023-05-07T01:49:02;15.07;;;13.20;;
14326;SDS011;7247;53.330;-1.180;2023-05-07T01:51:29;13.73;;;12.20;;
14326;SDS011;7247;53.330;-1.180;2023-05-07T01:53:56;15.60;;;12.83;;
14326;SDS011;7247;53.330;-1.180;2023-05-07T01:56:23;16.00;;;12.87;;
14326;SDS011;7247;53.330;-1.180;2023-05-07T01:58:51;15.03;;;13.43;;
14326;SDS011;7247;53.330;-1.180;2023-05-07T02:01:17;14.20;;;12.70;;
14326;SDS011;7247;53.330;-1.180;2023-05-07T02:03:44;15.60;;;13.93;;
14326;SDS011;7247;53.330;-1.180;2023-05-07T02:06:10;16.10;;;14.40;;
14326;SDS011;7247;53.330;-1.180;2023-05-07T02:08:37;16.77;;;13.77;;
14326;SDS011;7247;53.330;-1.180;2023-05-07T02:11:04;21.50;;;16.20;;
14326;SDS011;7247;53.330;-1.180;2023-05-07T02:13:32;19.23;;;15.33;;
14326;SDS011;7247;53.330;-1.180;2023-05-07T02:16:00;18.60;;;16.13;;
14326;SDS011;7247;53.330;-1.180;2023-05-07T02:18:27;22.47;;;16.83;;
14326;SDS011;7247;53.330;-1.180;2023-05-07T02:20:53;20.83;;;16.67;;
14326;SDS011;7247;53.330;-1.180;2023-05-07T02:23:20;19.50;;;16.43;;
14326;SDS011;7247;53.330;-1.180;2023-05-07T02:25:46;20.00;;;16.30;;
14326;SDS011;7247;53.330;-1.180;2023-05-07T02:28:13;19.27;;;16.23;;
14326;SDS011;7247;53.330;-1.180;2023-05-07T02:30:39;22.60;;;16.67;;
14326;SDS011;7247;53.330;-1.180;2023-05-07T02:33:07;22.10;;;17.13;;
14326;SDS011;7247;53.330;-1.180;2023-05-07T02:35:34;21.63;;;16.87;;
14326;SDS011;7247;53.330;-1.180;2023-05-07T02:38:01;23.90;;;17.70;;
14326;SDS011;7247;53.330;-1.180;2023-05-07T02:40:27;19.67;;;14.73;;
14326;SDS011;7247;53.330;-1.180;2023-05-07T02:42:54;18.43;;;13.53;;
14326;SDS011;7247;53.330;-1.180;2023-05-07T02:45:20;19.07;;;13.90;;
14326;SDS011;7247;53.330;-1.180;2023-05-07T02:47:47;21.27;;;14.20;;
14326;SDS011;7247;53.330;-1.180;2023-05-07T02:50:15;18.30;;;13.47;;
14326;SDS011;7247;53.330;-1.180;2023-05-07T02:52:41;16.27;;;12.53;;
14326;SDS011;7247;53.330;-1.180;2023-05-07T02:55:08;16.97;;;13.20;;
14326;SDS011;7247;53.330;-1.180;2023-05-07T02:57:34;18.47;;;12.77;;
14326;SDS011;7247;53.330;-1.180;2023-05-07T03:00:09;18.13;;;13.53;;
14326;SDS011;7247;53.330;-1.180;2023-05-07T03:02:36;17.83;;;12.30;;
14326;SDS011;7247;53.330;-1.180;2023-05-07T03:05:02;17.73;;;13.43;;
14326;SDS011;7247;53.330;-1.180;2023-05-07T03:07:30;17.67;;;12.27;;
14326;SDS011;7247;53.330;-1.180;2023-05-07T03:09:57;18.63;;;12.63;;
14326;SDS011;7247;53.330;-1.180;2023-05-07T03:12:23;15.90;;;12.40;;
14326;SDS011;7247;53.330;-1.180;2023-05-07T03:14:50;16.00;;;12.53;;
14326;SDS011;7247;53.330;-1.180;2023-05-07T03:17:16;17.57;;;12.23;;
14326;SDS011;7247;53.330;-1.180;2023-05-07T03:19:42;16.60;;;12.07;;
14326;SDS011;7247;53.330;-1.180;2023-05-07T03:22:09;18.77;;;13.03;;
14326;SDS011;7247;53.330;-1.180;2023-05-07T03:24:37;18.10;;;11.87;;
14326;SDS011;7247;53.330;-1.180;2023-05-07T03:27:03;16.20;;;12.37;;
14326;SDS011;7247;53.330;-1.180;2023-05-07T03:29:29;17.23;;;12.27;;
14326;SDS011;7247;53.330;-1.180;2023-05-07T03:31:56;17.73;;;12.87;;
14326;SDS011;7247;53.330;-1.180;2023-05-07T03:34:22;18.33;;;12.83;;
14326;SDS011;7247;53.330;-1.180;2023-05-07T03:36:49;19.80;;;12.60;;
14326;SDS011;7247;53.330;-1.180;2023-05-07T03:39:15;24.03;;;13.50;;
14326;SDS011;7247;53.330;-1.180;2023-05-07T03:41:43;23.77;;;13.67;;
14326;SDS011;7247;53.330;-1.180;2023-05-07T03:44:09;23.87;;;14.23;;
14326;SDS011;7247;53.330;-1.180;2023-05-07T03:46:36;25.27;;;14.87;;
14326;SDS011;7247;53.330;-1.180;2023-05-07T03:49:02;26.33;;;14.70;;
14326;SDS011;7247;53.330;-1.180;2023-05-07T03:51:29;25.67;;;13.63;;
14326;SDS011;7247;53.330;-1.180;2023-05-07T03:53:56;30.47;;;14.80;;
14326;SDS011;7247;53.330;-1.180;2023-05-07T03:56:22;29.60;;;15.00;;
14326;SDS011;7247;53.330;-1.180;2023-05-07T03:58:52;27.93;;;14.77;;
14326;SDS011;7247;53.330;-1.180;2023-05-07T04:01:19;28.50;;;14.57;;
14326;SDS011;7247;53.330;-1.180;2023-05-07T04:03:45;28.93;;;15.10;;
14326;SDS011;7247;53.330;-1.180;2023-05-07T04:06:12;25.67;;;14.13;;
14326;SDS011;7247;53.330;-1.180;2023-05-07T04:08:38;28.30;;;14.13;;
14326;SDS011;7247;53.330;-1.180;2023-05-07T04:11:04;28.10;;;14.50;;
14326;SDS011;7247;53.330;-1.180;2023-05-07T04:13:31;27.17;;;14.40;;
14326;SDS011;7247;53.330;-1.180;2023-05-07T04:16:00;27.40;;;15.03;;
14326;SDS011;7247;53.330;-1.180;2023-05-07T04:18:27;30.87;;;15.73;;
14326;SDS011;7247;53.330;-1.180;2023-05-07T04:20:53;28.90;;;15.47;;
14326;SDS011;7247;53.330;-1.180;2023-05-07T04:23:20;30.83;;;15.13;;
14326;SDS011;7247;53.330;-1.180;2023-05-07T04:25:46;30.57;;;15.23;;
14326;SDS011;7247;53.330;-1.180;2023-05-07T04:28:12;36.77;;;16.07;;
14326;SDS011;7247;53.330;-1.180;2023-05-07T04:30:39;36.37;;;16.33;;
14326;SDS011;7247;53.330;-1.180;2023-05-07T04:33:07;35.83;;;15.53;;
14326;SDS011;7247;53.330;-1.180;2023-05-07T04:35:34;41.50;;;16.90;;
14326;SDS011;7247;53.330;-1.180;2023-05-07T04:38:01;38.03;;;16.13;;
14326;SDS011;7247;53.330;-1.180;2023-05-07T04:40:27;39.10;;;16.43;;
14326;SDS011;7247;53.330;-1.180;2023-05-07T04:42:53;36.63;;;15.60;;
14326;SDS011;7247;53.330;-1.180;2023-05-07T04:45:20;37.83;;;15.80;;
14326;SDS011;7247;53.330;-1.180;2023-05-07T04:47:46;40.60;;;16.73;;
14326;SDS011;7247;53.330;-1.180;2023-05-07T04:50:14;34.43;;;15.63;;
14326;SDS011;7247;53.330;-1.180;2023-05-07T04:52:41;38.40;;;15.63;;
14326;SDS011;7247;53.330;-1.180;2023-05-07T04:55:08;30.97;;;14.33;;
14326;SDS011;7247;53.330;-1.180;2023-05-07T04:57:34;29.67;;;13.97;;
14326;SDS011;7247;53.330;-1.180;2023-05-07T05:00:00;31.57;;;14.03;;
14326;SDS011;7247;53.330;-1.180;2023-05-07T05:02:29;30.37;;;14.70;;
14326;SDS011;7247;53.330;-1.180;2023-05-07T05:04:55;33.30;;;14.77;;
14326;SDS011;7247;53.330;-1.180;2023-05-07T05:07:23;33.53;;;14.67;;
14326;SDS011;7247;53.330;-1.180;2023-05-07T05:09:49;30.63;;;14.53;;
14326;SDS011;7247;53.330;-1.180;2023-05-07T05:12:16;29.93;;;14.50;;
14326;SDS011;7247;53.330;-1.180;2023-05-07T05:14:42;30.60;;;14.33;;
14326;SDS011;7247;53.330;-1.180;2023-05-07T05:17:09;31.07;;;15.07;;
14326;SDS011;7247;53.330;-1.180;2023-05-07T05:19:35;24.83;;;13.33;;
14326;SDS011;7247;53.330;-1.180;2023-05-07T05:22:01;26.03;;;13.23;;
14326;SDS011;7247;53.330;-1.180;2023-05-07T05:24:30;25.83;;;13.20;;
14326;SDS011;7247;53.330;-1.180;2023-05-07T05:26:56;26.43;;;13.20;;
14326;SDS011;7247;53.330;-1.180;2023-05-07T05:29:24;26.83;;;13.60;;
14326;SDS011;7247;53.330;-1.180;2023-05-07T05:31:51;23.73;;;12.87;;
14326;SDS011;7247;53.330;-1.180;2023-05-07T05:34:17;23.10;;;12.83;;
14326;SDS011;7247;53.330;-1.180;2023-05-07T05:36:44;22.63;;;13.10;;
14326;SDS011;7247;53.330;-1.180;2023-05-07T05:39:11;22.23;;;12.40;;
14326;SDS011;7247;53.330;-1.180;2023-05-07T05:41:39;20.33;;;11.40;;
14326;SDS011;7247;53.330;-1.180;2023-05-07T05:44:05;20.97;;;12.97;;
14326;SDS011;7247;53.330;-1.180;2023-05-07T05:46:32;18.67;;;11.07;;
14326;SDS011;7247;53.330;-1.180;2023-05-07T05:48:58;15.77;;;10.47;;
14326;SDS011;7247;53.330;-1.180;2023-05-07T05:51:25;13.60;;;9.60;;
14326;SDS011;7247;53.330;-1.180;2023-05-07T05:53:51;15.57;;;10.43;;
14326;SDS011;7247;53.330;-1.180;2023-05-07T05:56:18;14.47;;;10.27;;
14326;SDS011;7247;53.330;-1.180;2023-05-07T05:58:46;15.40;;;10.07;;
14326;SDS011;7247;53.330;-1.180;2023-05-07T06:01:12;12.57;;;9.43;;
14326;SDS011;7247;53.330;-1.180;2023-05-07T06:03:39;13.37;;;10.43;;
14326;SDS011;7247;53.330;-1.180;2023-05-07T06:06:05;13.53;;;9.20;;
14326;SDS011;7247;53.330;-1.180;2023-05-07T06:08:31;14.53;;;9.90;;
14326;SDS011;7247;53.330;-1.180;2023-05-07T06:10:58;12.03;;;9.40;;
14326;SDS011;7247;53.330;-1.180;2023-05-07T06:13:24;11.73;;;9.00;;
14326;SDS011;7247;53.330;-1.180;2023-05-07T06:15:52;12.33;;;9.07;;
14326;SDS011;7247;53.330;-1.180;2023-05-07T06:18:19;11.83;;;8.90;;
14326;SDS011;7247;53.330;-1.180;2023-05-07T06:20:45;11.97;;;9.80;;
14326;SDS011;7247;53.330;-1.180;2023-05-07T06:23:11;12.70;;;9.63;;
14326;SDS011;7247;53.330;-1.180;2023-05-07T06:25:38;14.50;;;11.00;;
14326;SDS011;7247;53.330;-1.180;2023-05-07T06:28:04;13.17;;;10.40;;
14326;SDS011;7247;53.330;-1.180;2023-05-07T06:30:30;15.57;;;11.70;;
14326;SDS011;7247;53.330;-1.180;2023-05-07T06:32:58;15.60;;;11.73;;
14326;SDS011;7247;53.330;-1.180;2023-05-07T06:35:25;16.90;;;12.80;;
14326;SDS011;7247;53.330;-1.180;2023-05-07T06:37:51;14.10;;;11.87;;
14326;SDS011;7247;53.330;-1.180;2023-05-07T06:40:18;13.67;;;10.80;;
14326;SDS011;7247;53.330;-1.180;2023-05-07T06:42:44;14.50;;;11.40;;
14326;SDS011;7247;53.330;-1.180;2023-05-07T06:45:11;15.10;;;12.27;;
14326;SDS011;7247;53.330;-1.180;2023-05-07T06:47:37;14.50;;;12.10;;
14326;SDS011;7247;53.330;-1.180;2023-05-07T06:50:05;14.73;;;12.27;;
14326;SDS011;7247;53.330;-1.180;2023-05-07T06:52:32;14.53;;;12.30;;
14326;SDS011;7247;53.330;-1.180;2023-05-07T06:54:59;16.73;;;12.50;;
14326;SDS011;7247;53.330;-1.180;2023-05-07T06:57:26;14.57;;;12.30;;
14326;SDS011;7247;53.330;-1.180;2023-05-07T06:59:52;14.73;;;12.40;;
14326;SDS011;7247;53.330;-1.180;2023-05-07T07:02:18;14.77;;;12.53;;
14326;SDS011;7247;53.330;-1.180;2023-05-07T07:04:45;16.90;;;12.13;;
14326;SDS011;7247;53.330;-1.180;2023-05-07T07:07:13;15.30;;;12.10;;
14326;SDS011;7247;53.330;-1.180;2023-05-07T07:09:39;12.50;;;11.20;;
14326;SDS011;7247;53.330;-1.180;2023-05-07T07:12:05;13.60;;;11.23;;
14326;SDS011;7247;53.330;-1.180;2023-05-07T07:14:32;10.73;;;9.30;;
14326;SDS011;7247;53.330;-1.180;2023-05-07T07:16:58;13.53;;;10.80;;
14326;SDS011;7247;53.330;-1.180;2023-05-07T07:19:25;11.27;;;10.07;;
14326;SDS011;7247;53.330;-1.180;2023-05-07T07:21:51;11.33;;;10.13;;
14326;SDS011;7247;53.330;-1.180;2023-05-07T07:24:19;11.53;;;10.10;;
14326;SDS011;7247;53.330;-1.180;2023-05-07T07:26:46;11.03;;;9.83;;
14326;SDS011;7247;53.330;-1.180;2023-05-07T07:29:12;11.47;;;9.60;;
14326;SDS011;7247;53.330;-1.180;2023-05-07T07:31:39;11.40;;;10.20;;
14326;SDS011;7247;53.330;-1.180;2023-05-07T07:34:05;11.77;;;9.50;;
14326;SDS011;7247;53.330;-1.180;2023-05-07T07:36:31;10.70;;;9.60;;
14326;SDS011;7247;53.330;-1.180;2023-05-07T07:38:58;11.13;;;9.47;;
14326;SDS011;7247;53.330;-1.180;2023-05-07T07:41:26;11.03;;;9.93;;
14326;SDS011;7247;53.330;-1.180;2023-05-07T07:43:52;10.90;;;9.80;;
14326;SDS011;7247;53.330;-1.180;2023-05-07T07:46:18;10.87;;;9.77;;
14326;SDS011;7247;53.330;-1.180;2023-05-07T07:48:45;11.87;;;10.03;;
14326;SDS011;7247;53.330;-1.180;2023-05-07T07:51:11;10.67;;;9.57;;
14326;SDS011;7247;53.330;-1.180;2023-05-07T07:53:38;12.43;;;9.90;;
14326;SDS011;7247;53.330;-1.180;2023-05-07T07:56:04;11.93;;;10.30;;
14326;SDS011;7247;53.330;-1.180;2023-05-07T07:58:32;10.40;;;9.40;;
14326;SDS011;7247;53.330;-1.180;2023-05-07T08:01:00;11.03;;;9.80;;
14326;SDS011;7247;53.330;-1.180;2023-05-07T08:03:27;11.23;;;10.03;;
14326;SDS011;7247;53.330;-1.180;2023-05-07T08:05:56;11.80;;;9.50;;
14326;SDS011;7247;53.330;-1.180;2023-05-07T08:08:23;10.60;;;9.33;;
14326;SDS011;7247;53.330;-1.180;2023-05-07T08:10:49;9.80;;;8.40;;
14326;SDS011;7247;53.330;-1.180;2023-05-07T08:13:16;10.77;;;8.83;;
14326;SDS011;7247;53.330;-1.180;2023-05-07T08:15:44;10.30;;;9.07;;
14326;SDS011;7247;53.330;-1.180;2023-05-07T08:18:10;8.17;;;7.37;;
14326;SDS011;7247;53.330;-1.180;2023-05-07T08:20:36;7.17;;;6.47;;
14326;SDS011;7247;53.330;-1.180;2023-05-07T08:23:04;6.13;;;5.53;;
14326;SDS011;7247;53.330;-1.180;2023-05-07T08:25:32;7.50;;;6.70;;
14326;SDS011;7247;53.330;-1.180;2023-05-07T08:27:58;8.43;;;6.70;;
14326;SDS011;7247;53.330;-1.180;2023-05-07T08:30:25;5.47;;;4.97;;
14326;SDS011;7247;53.330;-1.180;2023-05-07T08:32:52;5.23;;;4.73;;
14326;SDS011;7247;53.330;-1.180;2023-05-07T08:35:19;4.87;;;4.47;;
14326;SDS011;7247;53.330;-1.180;2023-05-07T08:37:45;5.30;;;4.73;;
14326;SDS011;7247;53.330;-1.180;2023-05-07T08:40:12;4.77;;;4.33;;
14326;SDS011;7247;53.330;-1.180;2023-05-07T08:42:38;5.70;;;5.00;;
14326;SDS011;7247;53.330;-1.180;2023-05-07T08:45:07;5.33;;;4.83;;
14326;SDS011;7247;53.330;-1.180;2023-05-07T08:47:38;4.80;;;4.30;;
14326;SDS011;7247;53.330;-1.180;2023-05-07T08:50:08;5.20;;;4.70;;
14326;SDS011;7247;53.330;-1.180;2023-05-07T08:52:34;4.20;;;3.80;;
14326;SDS011;7247;53.330;-1.180;2023-05-07T08:55:01;4.20;;;3.80;;
14326;SDS011;7247;53.330;-1.180;2023-05-07T08:57:28;4.90;;;4.40;;
14326;SDS011;7247;53.330;-1.180;2023-05-07T08:59:55;4.50;;;4.10;;
14326;SDS011;7247;53.330;-1.180;2023-05-07T09:02:21;4.47;;;4.07;;
14326;SDS011;7247;53.330;-1.180;2023-05-07T09:04:48;4.30;;;3.90;;
14326;SDS011;7247;53.330;-1.180;2023-05-07T09:07:15;4.00;;;3.60;;
14326;SDS011;7247;53.330;-1.180;2023-05-07T09:09:43;4.23;;;3.83;;
14326;SDS011;7247;53.330;-1.180;2023-05-07T09:12:10;4.20;;;3.80;;
14326;SDS011;7247;53.330;-1.180;2023-05-07T09:14:36;5.20;;;4.03;;
14326;SDS011;7247;53.330;-1.180;2023-05-07T09:17:02;3.73;;;3.43;;
14326;SDS011;7247;53.330;-1.180;2023-05-07T09:19:29;2.90;;;2.60;;
14326;SDS011;7247;53.330;-1.180;2023-05-07T09:21:59;2.63;;;2.43;;
14326;SDS011;7247;53.330;-1.180;2023-05-07T09:24:27;2.30;;;2.10;;
14326;SDS011;7247;53.330;-1.180;2023-05-07T09:26:57;2.43;;;2.23;;
14326;SDS011;7247;53.330;-1.180;2023-05-07T09:29:24;3.30;;;2.63;;
14326;SDS011;7247;53.330;-1.180;2023-05-07T09:31:51;2.40;;;2.20;;
14326;SDS011;7247;53.330;-1.180;2023-05-07T09:34:17;3.17;;;2.20;;
14326;SDS011;7247;53.330;-1.180;2023-05-07T09:36:43;2.60;;;2.40;;
14326;SDS011;7247;53.330;-1.180;2023-05-07T09:39:10;3.30;;;2.67;;
14326;SDS011;7247;53.330;-1.180;2023-05-07T09:41:44;2.40;;;2.20;;
14326;SDS011;7247;53.330;-1.180;2023-05-07T09:44:11;2.37;;;2.13;;
14326;SDS011;7247;53.330;-1.180;2023-05-07T09:46:38;3.17;;;1.83;;
14326;SDS011;7247;53.330;-1.180;2023-05-07T09:49:04;2.47;;;2.17;;
14326;SDS011;7247;53.330;-1.180;2023-05-07T09:51:36;2.27;;;2.07;;
14326;SDS011;7247;53.330;-1.180;2023-05-07T09:54:05;2.57;;;2.10;;
14326;SDS011;7247;53.330;-1.180;2023-05-07T09:56:32;2.50;;;2.27;;
14326;SDS011;7247;53.330;-1.180;2023-05-07T09:59:00;2.57;;;2.23;;
14326;SDS011;7247;53.330;-1.180;2023-05-07T10:01:27;2.70;;;2.50;;
14326;SDS011;7247;53.330;-1.180;2023-05-07T10:03:54;2.13;;;1.93;;
14326;SDS011;7247;53.330;-1.180;2023-05-07T10:06:20;2.30;;;2.10;;
14326;SDS011;7247;53.330;-1.180;2023-05-07T10:08:47;2.07;;;1.80;;
14326;SDS011;7247;53.330;-1.180;2023-05-07T10:11:14;2.50;;;2.30;;
14326;SDS011;7247;53.330;-1.180;2023-05-07T10:13:41;2.43;;;2.23;;
14326;SDS011;7247;53.330;-1.180;2023-05-07T10:16:09;2.20;;;2.00;;
14326;SDS011;7247;53.330;-1.180;2023-05-07T10:18:36;2.33;;;2.13;;
14326;SDS011;7247;53.330;-1.180;2023-05-07T10:21:04;2.87;;;2.10;;
14326;SDS011;7247;53.330;-1.180;2023-05-07T10:23:36;2.40;;;2.20;;
14326;SDS011;7247;53.330;-1.180;2023-05-07T10:26:03;2.53;;;2.10;;
14326;SDS011;7247;53.330;-1.180;2023-05-07T10:28:30;3.27;;;2.97;;
14326;SDS011;7247;53.330;-1.180;2023-05-07T10:31:02;2.60;;;2.40;;
14326;SDS011;7247;53.330;-1.180;2023-05-07T10:33:31;7.83;;;3.00;;
14326;SDS011;7247;53.330;-1.180;2023-05-07T10:35:59;3.23;;;2.80;;
14326;SDS011;7247;53.330;-1.180;2023-05-07T10:38:26;3.20;;;2.90;;
14326;SDS011;7247;53.330;-1.180;2023-05-07T10:40:53;4.30;;;3.00;;
14326;SDS011;7247;53.330;-1.180;2023-05-07T10:43:19;3.37;;;2.67;;
14326;SDS011;7247;53.330;-1.180;2023-05-07T10:48:27;3.73;;;2.83;;
14326;SDS011;7247;53.330;-1.180;2023-05-07T10:50:55;6.40;;;4.27;;
14326;SDS011;7247;53.330;-1.180;2023-05-07T10:53:41;4.30;;;3.77;;
14326;SDS011;7247;53.330;-1.180;2023-05-07T10:56:24;4.30;;;3.90;;
14326;SDS011;7247;53.330;-1.180;2023-05-07T10:58:51;4.00;;;3.23;;
14326;SDS011;7247;53.330;-1.180;2023-05-07T11:01:20;2.53;;;2.10;;
14326;SDS011;7247;53.330;-1.180;2023-05-07T11:04:13;2.80;;;2.47;;
14326;SDS011;7247;53.330;-1.180;2023-05-07T11:06:41;3.23;;;2.70;;
14326;SDS011;7247;53.330;-1.180;2023-05-07T11:09:07;2.30;;;2.10;;
14326;SDS011;7247;53.330;-1.180;2023-05-07T11:11:46;2.77;;;2.57;;
14326;SDS011;7247;53.330;-1.180;2023-05-07T11:14:22;3.30;;;2.77;;
14326;SDS011;7247;53.330;-1.180;2023-05-07T11:17:08;5.00;;;3.63;;
14326;SDS011;7247;53.330;-1.180;2023-05-07T11:22:37;3.70;;;3.40;;
14326;SDS011;7247;53.330;-1.180;2023-05-07T11:25:05;4.00;;;3.63;;
14326;SDS011;7247;53.330;-1.180;2023-05-07T11:27:32;4.00;;;3.60;;
14326;SDS011;7247;53.330;-1.180;2023-05-07T11:29:58;3.93;;;3.53;;
14326;SDS011;7247;53.330;-1.180;2023-05-07T11:32:26;4.37;;;3.97;;
14326;SDS011;7247;53.330;-1.180;2023-05-07T11:34:53;4.60;;;3.70;;
14326;SDS011;7247;53.330;-1.180;2023-05-07T11:37:20;4.77;;;4.00;;
14326;SDS011;7247;53.330;-1.180;2023-05-07T11:39:48;4.20;;;3.80;;
14326;SDS011;7247;53.330;-1.180;2023-05-07T11:42:25;4.27;;;3.60;;
14326;SDS011;7247;53.330;-1.180;2023-05-07T11:44:52;4.47;;;3.60;;
14326;SDS011;7247;53.330;-1.180;2023-05-07T11:47:19;4.50;;;3.53;;
14326;SDS011;7247;53.330;-1.180;2023-05-07T11:49:46;4.57;;;3.27;;
14326;SDS011;7247;53.330;-1.180;2023-05-07T11:52:12;3.90;;;3.60;;
14326;SDS011;7247;53.330;-1.180;2023-05-07T11:54:39;3.80;;;3.50;;
14326;SDS011;7247;53.330;-1.180;2023-05-07T11:57:07;5.60;;;4.03;;
14326;SDS011;7247;53.330;-1.180;2023-05-07T11:59:40;5.43;;;4.30;;
14326;SDS011;7247;53.330;-1.180;2023-05-07T12:02:06;5.40;;;4.67;;
14326;SDS011;7247;53.330;-1.180;2023-05-07T12:04:33;5.03;;;4.33;;
14326;SDS011;7247;53.330;-1.180;2023-05-07T12:06:59;4.50;;;4.07;;
14326;SDS011;7247;53.330;-1.180;2023-05-07T12:09:26;4.80;;;4.30;;
14326;SDS011;7247;53.330;-1.180;2023-05-07T12:11:52;6.90;;;4.87;;
14326;SDS011;7247;53.330;-1.180;2023-05-07T12:14:26;4.57;;;4.17;;
14326;SDS011;7247;53.330;-1.180;2023-05-07T12:16:53;5.47;;;4.83;;
14326;SDS011;7247;53.330;-1.180;2023-05-07T12:19:19;5.23;;;4.73;;
14326;SDS011;7247;53.330;-1.180;2023-05-07T12:21:46;5.33;;;4.67;;
14326;SDS011;7247;53.330;-1.180;2023-05-07T12:24:14;6.33;;;5.37;;
14326;SDS011;7247;53.330;-1.180;2023-05-07T12:26:40;6.93;;;4.50;;
14326;SDS011;7247;53.330;-1.180;2023-05-07T12:29:07;7.53;;;4.50;;
14326;SDS011;7247;53.330;-1.180;2023-05-07T12:31:35;5.17;;;4.27;;
14326;SDS011;7247;53.330;-1.180;2023-05-07T12:34:02;5.33;;;4.83;;
14326;SDS011;7247;53.330;-1.180;2023-05-07T12:36:35;6.53;;;4.17;;
14326;SDS011;7247;53.330;-1.180;2023-05-07T12:39:03;4.40;;;4.00;;
14326;SDS011;7247;53.330;-1.180;2023-05-07T12:41:30;4.27;;;3.80;;
14326;SDS011;7247;53.330;-1.180;2023-05-07T12:43:56;5.23;;;3.60;;
14326;SDS011;7247;53.330;-1.180;2023-05-07T12:46:23;3.60;;;3.07;;
14326;SDS011;7247;53.330;-1.180;2023-05-07T12:48:51;3.90;;;3.50;;
14326;SDS011;7247;53.330;-1.180;2023-05-07T12:51:18;3.50;;;3.17;;
14326;SDS011;7247;53.330;-1.180;2023-05-07T12:53:45;3.40;;;3.10;;
14326;SDS011;7247;53.330;-1.180;2023-05-07T12:56:11;4.10;;;3.20;;
14326;SDS011;7247;53.330;-1.180;2023-05-07T12:58:37;3.90;;;2.87;;
14326;SDS011;7247;53.330;-1.180;2023-05-07T13:01:05;3.30;;;2.87;;
14326;SDS011;7247;53.330;-1.180;2023-05-07T13:03:32;3.43;;;2.87;;
14326;SDS011;7247;53.330;-1.180;2023-05-07T13:06:00;4.97;;;2.90;;
14326;SDS011;7247;53.330;-1.180;2023-05-07T13:08:28;3.63;;;2.70;;
14326;SDS011;7247;53.330;-1.180;2023-05-07T13:10:55;3.40;;;2.50;;
14326;SDS011;7247;53.330;-1.180;2023-05-07T13:13:21;3.70;;;2.40;;
14326;SDS011;7247;53.330;-1.180;2023-05-07T13:15:48;3.17;;;2.50;;
14326;SDS011;7247;53.330;-1.180;2023-05-07T13:18:14;3.80;;;2.40;;
14326;SDS011;7247;53.330;-1.180;2023-05-07T13:20:41;3.20;;;2.50;;
14326;SDS011;7247;53.330;-1.180;2023-05-07T13:23:09;3.63;;;2.50;;
14326;SDS011;7247;53.330;-1.180;2023-05-07T13:25:35;3.13;;;2.17;;
14326;SDS011;7247;53.330;-1.180;2023-05-07T13:28:01;3.03;;;2.40;;
14326;SDS011;7247;53.330;-1.180;2023-05-07T13:30:29;3.30;;;2.67;;
14326;SDS011;7247;53.330;-1.180;2023-05-07T13:32:55;2.60;;;2.20;;
14326;SDS011;7247;53.330;-1.180;2023-05-07T13:35:22;3.60;;;2.40;;
14326;SDS011;7247;53.330;-1.180;2023-05-07T13:37:48;3.35;;;2.25;;
14326;SDS011;7247;53.330;-1.180;2023-05-07T13:40:16;3.63;;;2.30;;
14326;SDS011;7247;53.330;-1.180;2023-05-07T13:42:43;3.63;;;2.57;;
14326;SDS011;7247;53.330;-1.180;2023-05-07T13:45:09;3.60;;;2.50;;
14326;SDS011;7247;53.330;-1.180;2023-05-07T13:47:39;2.87;;;2.13;;
14326;SDS011;7247;53.330;-1.180;2023-05-07T13:50:05;4.10;;;2.33;;
14326;SDS011;7247;53.330;-1.180;2023-05-07T13:52:32;3.65;;;2.33;;
14326;SDS011;7247;53.330;-1.180;2023-05-07T13:54:58;3.63;;;2.10;;
14326;SDS011;7247;53.330;-1.180;2023-05-07T13:57:26;5.53;;;2.30;;
14326;SDS011;7247;53.330;-1.180;2023-05-07T13:59:53;3.90;;;2.05;;
14326;SDS011;7247;53.330;-1.180;2023-05-07T14:02:20;2.03;;;1.80;;
14326;SDS011;7247;53.330;-1.180;2023-05-07T14:04:46;3.63;;;1.83;;
14326;SDS011;7247;53.330;-1.180;2023-05-07T14:07:13;3.42;;;2.22;;
14326;SDS011;7247;53.330;-1.180;2023-05-07T14:09:40;4.20;;;2.30;;
14326;SDS011;7247;53.330;-1.180;2023-05-07T14:12:06;3.80;;;2.03;;
14326;SDS011;7247;53.330;-1.180;2023-05-07T14:14:34;3.83;;;2.00;;
14326;SDS011;7247;53.330;-1.180;2023-05-07T14:17:00;3.65;;;2.25;;
14326;SDS011;7247;53.330;-1.180;2023-05-07T14:19:27;2.55;;;1.83;;
14326;SDS011;7247;53.330;-1.180;2023-05-07T14:21:53;3.45;;;1.77;;
14326;SDS011;7247;53.330;-1.180;2023-05-07T14:24:20;2.78;;;1.88;;
14326;SDS011;7247;53.330;-1.180;2023-05-07T14:26:47;2.08;;;1.90;;
14326;SDS011;7247;53.330;-1.180;2023-05-07T14:29:13;3.10;;;1.92;;
14326;SDS011;7247;53.330;-1.180;2023-05-07T14:31:45;3.65;;;2.10;;
14326;SDS011;7247;53.330;-1.180;2023-05-07T14:34:11;5.97;;;5.45;;
14326;SDS011;7247;53.330;-1.180;2023-05-07T14:36:37;5.15;;;3.50;;
14326;SDS011;7247;53.330;-1.180;2023-05-07T14:39:04;13.73;;;12.70;;